sensor_id;sensor_type;location;lat;lon;timestamp;temperature;humidity
17437;DHT22;71884;52.198;5.422;2023-07-31T00:00:07;25.80;51.80
17437;DHT22;71884;52.198;5.422;2023-07-31T00:02:37;25.80;51.80
17437;DHT22;71884;52.198;5.422;2023-07-31T00:05:09;25.80;51.80
17437;DHT22;71884;52.198;5.422;2023-07-31T00:07:38;25.80;51.70
17437;DHT22;71884;52.198;5.422;2023-07-31T00:10:08;25.80;51.70
17437;DHT22;71884;52.198;5.422;2023-07-31T00:12:38;25.80;51.90
17437;DHT22;71884;52.198;5.422;2023-07-31T00:15:09;25.80;51.90
17437;DHT22;71884;52.198;5.422;2023-07-31T00:17:38;25.80;51.90
17437;DHT22;71884;52.198;5.422;2023-07-31T00:20:11;25.80;52.00
17437;DHT22;71884;52.198;5.422;2023-07-31T00:22:40;25.90;52.00
17437;DHT22;71884;52.198;5.422;2023-07-31T00:25:09;25.80;52.00
17437;DHT22;71884;52.198;5.422;2023-07-31T00:27:38;25.90;52.10
17437;DHT22;71884;52.198;5.422;2023-07-31T00:30:10;25.90;52.00
17437;DHT22;71884;52.198;5.422;2023-07-31T00:32:39;25.90;52.10
17437;DHT22;71884;52.198;5.422;2023-07-31T00:35:11;25.90;52.10
17437;DHT22;71884;52.198;5.422;2023-07-31T00:37:40;25.90;52.10
17437;DHT22;71884;52.198;5.422;2023-07-31T00:40:09;25.90;52.10
17437;DHT22;71884;52.198;5.422;2023-07-31T00:42:39;25.90;52.20
17437;DHT22;71884;52.198;5.422;2023-07-31T00:45:09;25.90;52.10
17437;DHT22;71884;52.198;5.422;2023-07-31T00:47:38;25.90;52.20
17437;DHT22;71884;52.198;5.422;2023-07-31T00:50:08;25.90;52.20
17437;DHT22;71884;52.198;5.422;2023-07-31T00:52:39;25.90;52.20
17437;DHT22;71884;52.198;5.422;2023-07-31T00:55:09;25.80;52.20
17437;DHT22;71884;52.198;5.422;2023-07-31T00:57:38;25.90;52.30
17437;DHT22;71884;52.198;5.422;2023-07-31T01:00:11;25.80;52.20
17437;DHT22;71884;52.198;5.422;2023-07-31T01:02:38;25.80;52.00
17437;DHT22;71884;52.198;5.422;2023-07-31T01:05:07;25.80;52.00
17437;DHT22;71884;52.198;5.422;2023-07-31T01:07:45;25.80;52.20
17437;DHT22;71884;52.198;5.422;2023-07-31T01:10:21;25.80;52.30
17437;DHT22;71884;52.198;5.422;2023-07-31T01:12:53;25.80;52.20
17437;DHT22;71884;52.198;5.422;2023-07-31T01:15:24;25.80;52.30
17437;DHT22;71884;52.198;5.422;2023-07-31T01:17:53;25.80;52.40
17437;DHT22;71884;52.198;5.422;2023-07-31T01:20:24;25.80;52.50
17437;DHT22;71884;52.198;5.422;2023-07-31T01:23:13;25.80;52.60
17437;DHT22;71884;52.198;5.422;2023-07-31T01:26:05;25.80;52.40
17437;DHT22;71884;52.198;5.422;2023-07-31T01:28:49;25.80;52.60
17437;DHT22;71884;52.198;5.422;2023-07-31T01:31:24;25.70;52.70
17437;DHT22;71884;52.198;5.422;2023-07-31T01:33:57;25.70;52.70
17437;DHT22;71884;52.198;5.422;2023-07-31T01:36:30;25.70;53.10
17437;DHT22;71884;52.198;5.422;2023-07-31T01:39:03;25.70;52.90
17437;DHT22;71884;52.198;5.422;2023-07-31T01:41:34;25.70;52.80
17437;DHT22;71884;52.198;5.422;2023-07-31T01:44:04;25.70;52.80
17437;DHT22;71884;52.198;5.422;2023-07-31T01:46:34;25.70;52.70
17437;DHT22;71884;52.198;5.422;2023-07-31T01:49:03;25.70;52.80
17437;DHT22;71884;52.198;5.422;2023-07-31T01:51:32;25.70;52.70
17437;DHT22;71884;52.198;5.422;2023-07-31T01:54:01;25.70;52.70
17437;DHT22;71884;52.198;5.422;2023-07-31T01:56:33;25.70;52.70
17437;DHT22;71884;52.198;5.422;2023-07-31T01:59:03;25.70;53.00
17437;DHT22;71884;52.198;5.422;2023-07-31T02:01:32;25.70;53.10
17437;DHT22;71884;52.198;5.422;2023-07-31T02:04:01;25.70;53.00
17437;DHT22;71884;52.198;5.422;2023-07-31T02:06:30;25.70;53.20
17437;DHT22;71884;52.198;5.422;2023-07-31T02:08:59;25.70;53.20
17437;DHT22;71884;52.198;5.422;2023-07-31T02:11:29;25.60;53.20
17437;DHT22;71884;52.198;5.422;2023-07-31T02:14:00;25.70;53.30
17437;DHT22;71884;52.198;5.422;2023-07-31T02:16:29;25.70;53.50
17437;DHT22;71884;52.198;5.422;2023-07-31T02:18:58;25.70;53.30
17437;DHT22;71884;52.198;5.422;2023-07-31T02:21:27;25.60;53.50
17437;DHT22;71884;52.198;5.422;2023-07-31T02:23:56;25.60;53.60
17437;DHT22;71884;52.198;5.422;2023-07-31T02:26:25;25.60;53.80
17437;DHT22;71884;52.198;5.422;2023-07-31T02:28:55;25.60;53.80
17437;DHT22;71884;52.198;5.422;2023-07-31T02:31:26;25.60;53.70
17437;DHT22;71884;52.198;5.422;2023-07-31T02:33:55;25.60;53.90
17437;DHT22;71884;52.198;5.422;2023-07-31T02:36:24;25.60;54.00
17437;DHT22;71884;52.198;5.422;2023-07-31T02:38:53;25.60;54.10
17437;DHT22;71884;52.198;5.422;2023-07-31T02:41:22;25.60;54.30
17437;DHT22;71884;52.198;5.422;2023-07-31T02:43:51;25.60;54.40
17437;DHT22;71884;52.198;5.422;2023-07-31T02:46:20;25.50;54.50
17437;DHT22;71884;52.198;5.422;2023-07-31T02:48:53;25.50;54.50
17437;DHT22;71884;52.198;5.422;2023-07-31T02:51:22;25.50;54.50
17437;DHT22;71884;52.198;5.422;2023-07-31T02:53:51;25.50;54.50
17437;DHT22;71884;52.198;5.422;2023-07-31T02:56:19;25.50;54.60
17437;DHT22;71884;52.198;5.422;2023-07-31T02:58:48;25.60;54.70
17437;DHT22;71884;52.198;5.422;2023-07-31T03:01:17;25.50;54.60
17437;DHT22;71884;52.198;5.422;2023-07-31T03:03:46;25.60;54.80
17437;DHT22;71884;52.198;5.422;2023-07-31T03:06:18;25.60;54.70
17437;DHT22;71884;52.198;5.422;2023-07-31T03:08:47;25.50;54.80
17437;DHT22;71884;52.198;5.422;2023-07-31T03:11:16;25.50;54.80
17437;DHT22;71884;52.198;5.422;2023-07-31T03:13:45;25.50;54.90
17437;DHT22;71884;52.198;5.422;2023-07-31T03:16:14;25.50;55.00
17437;DHT22;71884;52.198;5.422;2023-07-31T03:18:43;25.50;55.00
17437;DHT22;71884;52.198;5.422;2023-07-31T03:21:12;25.50;55.00
17437;DHT22;71884;52.198;5.422;2023-07-31T03:23:45;25.50;55.00
17437;DHT22;71884;52.198;5.422;2023-07-31T03:26:14;25.50;55.00
17437;DHT22;71884;52.198;5.422;2023-07-31T03:28:44;25.50;55.00
17437;DHT22;71884;52.198;5.422;2023-07-31T03:31:13;25.50;55.10
17437;DHT22;71884;52.198;5.422;2023-07-31T03:33:41;25.50;55.10
17437;DHT22;71884;52.198;5.422;2023-07-31T03:36:11;25.50;55.10
17437;DHT22;71884;52.198;5.422;2023-07-31T03:38:39;25.50;55.10
17437;DHT22;71884;52.198;5.422;2023-07-31T03:41:11;25.50;55.10
17437;DHT22;71884;52.198;5.422;2023-07-31T03:43:40;25.50;55.20
17437;DHT22;71884;52.198;5.422;2023-07-31T03:46:09;25.40;55.20
17437;DHT22;71884;52.198;5.422;2023-07-31T03:48:38;25.40;55.10
17437;DHT22;71884;52.198;5.422;2023-07-31T03:51:07;25.40;55.10
17437;DHT22;71884;52.198;5.422;2023-07-31T03:53:36;25.40;55.20
17437;DHT22;71884;52.198;5.422;2023-07-31T03:56:05;25.40;55.20
17437;DHT22;71884;52.198;5.422;2023-07-31T03:58:37;25.40;55.20
17437;DHT22;71884;52.198;5.422;2023-07-31T04:01:06;25.40;55.10
17437;DHT22;71884;52.198;5.422;2023-07-31T04:03:35;25.40;55.10
17437;DHT22;71884;52.198;5.422;2023-07-31T04:06:04;25.40;55.20
17437;DHT22;71884;52.198;5.422;2023-07-31T04:08:33;25.40;55.10
17437;DHT22;71884;52.198;5.422;2023-07-31T04:11:02;25.40;55.10
17437;DHT22;71884;52.198;5.422;2023-07-31T04:13:31;25.40;55.10
17437;DHT22;71884;52.198;5.422;2023-07-31T04:16:03;25.40;55.10
17437;DHT22;71884;52.198;5.422;2023-07-31T04:18:32;25.30;55.20
17437;DHT22;71884;52.198;5.422;2023-07-31T04:21:01;25.30;55.10
17437;DHT22;71884;52.198;5.422;2023-07-31T04:23:30;25.30;55.20
17437;DHT22;71884;52.198;5.422;2023-07-31T04:25:59;25.30;55.20
17437;DHT22;71884;52.198;5.422;2023-07-31T04:28:28;25.30;55.20
17437;DHT22;71884;52.198;5.422;2023-07-31T04:30:57;25.30;55.10
17437;DHT22;71884;52.198;5.422;2023-07-31T04:33:29;25.30;55.20
17437;DHT22;71884;52.198;5.422;2023-07-31T04:36:00;25.30;55.20
17437;DHT22;71884;52.198;5.422;2023-07-31T04:38:29;25.30;55.20
17437;DHT22;71884;52.198;5.422;2023-07-31T04:40:58;25.30;55.20
17437;DHT22;71884;52.198;5.422;2023-07-31T04:43:27;25.30;55.20
17437;DHT22;71884;52.198;5.422;2023-07-31T04:45:56;25.20;55.20
17437;DHT22;71884;52.198;5.422;2023-07-31T04:48:25;25.30;55.10
17437;DHT22;71884;52.198;5.422;2023-07-31T04:50:57;25.30;55.20
17437;DHT22;71884;52.198;5.422;2023-07-31T04:53:26;25.30;55.10
17437;DHT22;71884;52.198;5.422;2023-07-31T04:55:55;25.30;55.10
17437;DHT22;71884;52.198;5.422;2023-07-31T04:58:24;25.20;55.10
17437;DHT22;71884;52.198;5.422;2023-07-31T05:00:53;25.30;55.10
17437;DHT22;71884;52.198;5.422;2023-07-31T05:03:22;25.20;55.10
17437;DHT22;71884;52.198;5.422;2023-07-31T05:05:51;25.20;55.10
17437;DHT22;71884;52.198;5.422;2023-07-31T05:08:22;25.20;55.20
17437;DHT22;71884;52.198;5.422;2023-07-31T05:10:51;25.20;55.30
17437;DHT22;71884;52.198;5.422;2023-07-31T05:13:20;25.20;55.30
17437;DHT22;71884;52.198;5.422;2023-07-31T05:15:49;25.20;55.30
17437;DHT22;71884;52.198;5.422;2023-07-31T05:18:18;25.20;55.20
17437;DHT22;71884;52.198;5.422;2023-07-31T05:20:47;25.20;55.20
17437;DHT22;71884;52.198;5.422;2023-07-31T05:23:16;25.20;55.30
17437;DHT22;71884;52.198;5.422;2023-07-31T05:25:48;25.20;55.40
17437;DHT22;71884;52.198;5.422;2023-07-31T05:28:17;25.20;55.40
17437;DHT22;71884;52.198;5.422;2023-07-31T05:30:46;25.20;55.30
17437;DHT22;71884;52.198;5.422;2023-07-31T05:33:15;25.20;55.30
17437;DHT22;71884;52.198;5.422;2023-07-31T05:35:44;25.10;55.30
17437;DHT22;71884;52.198;5.422;2023-07-31T05:38:13;25.10;55.30
17437;DHT22;71884;52.198;5.422;2023-07-31T05:40:42;25.20;55.30
17437;DHT22;71884;52.198;5.422;2023-07-31T05:43:14;25.20;55.40
17437;DHT22;71884;52.198;5.422;2023-07-31T05:45:43;25.10;55.50
17437;DHT22;71884;52.198;5.422;2023-07-31T05:48:12;25.10;55.50
17437;DHT22;71884;52.198;5.422;2023-07-31T05:50:42;25.10;55.50
17437;DHT22;71884;52.198;5.422;2023-07-31T05:53:12;25.10;55.60
17437;DHT22;71884;52.198;5.422;2023-07-31T05:55:40;25.10;55.50
17437;DHT22;71884;52.198;5.422;2023-07-31T05:58:09;25.10;55.60
17437;DHT22;71884;52.198;5.422;2023-07-31T06:00:41;25.10;55.60
17437;DHT22;71884;52.198;5.422;2023-07-31T06:03:10;25.10;55.60
17437;DHT22;71884;52.198;5.422;2023-07-31T06:05:39;25.10;55.60
17437;DHT22;71884;52.198;5.422;2023-07-31T06:08:08;25.10;55.60
17437;DHT22;71884;52.198;5.422;2023-07-31T06:10:37;25.10;55.80
17437;DHT22;71884;52.198;5.422;2023-07-31T06:13:06;25.10;55.70
17437;DHT22;71884;52.198;5.422;2023-07-31T06:15:35;25.10;55.70
17437;DHT22;71884;52.198;5.422;2023-07-31T06:18:07;25.00;55.80
17437;DHT22;71884;52.198;5.422;2023-07-31T06:20:36;25.10;55.80
17437;DHT22;71884;52.198;5.422;2023-07-31T06:23:06;25.00;55.90
17437;DHT22;71884;52.198;5.422;2023-07-31T06:25:35;25.00;55.90
17437;DHT22;71884;52.198;5.422;2023-07-31T06:28:04;25.00;56.00
17437;DHT22;71884;52.198;5.422;2023-07-31T06:30:33;25.00;55.90
17437;DHT22;71884;52.198;5.422;2023-07-31T06:33:02;25.00;56.00
17437;DHT22;71884;52.198;5.422;2023-07-31T06:35:34;25.00;55.90
17437;DHT22;71884;52.198;5.422;2023-07-31T06:38:03;25.00;56.00
17437;DHT22;71884;52.198;5.422;2023-07-31T06:40:32;25.00;56.20
17437;DHT22;71884;52.198;5.422;2023-07-31T06:43:01;25.00;56.20
17437;DHT22;71884;52.198;5.422;2023-07-31T06:45:33;25.00;56.20
17437;DHT22;71884;52.198;5.422;2023-07-31T06:48:04;25.00;56.20
17437;DHT22;71884;52.198;5.422;2023-07-31T06:50:35;25.00;56.40
17437;DHT22;71884;52.198;5.422;2023-07-31T06:53:04;25.00;56.30
17437;DHT22;71884;52.198;5.422;2023-07-31T06:55:34;24.90;56.50
17437;DHT22;71884;52.198;5.422;2023-07-31T06:58:03;25.00;56.50
17437;DHT22;71884;52.198;5.422;2023-07-31T07:00:32;24.90;56.60
17437;DHT22;71884;52.198;5.422;2023-07-31T07:03:01;24.90;56.70
17437;DHT22;71884;52.198;5.422;2023-07-31T07:05:30;25.00;56.70
17437;DHT22;71884;52.198;5.422;2023-07-31T07:08:02;25.00;56.90
17437;DHT22;71884;52.198;5.422;2023-07-31T07:10:31;25.00;56.90
17437;DHT22;71884;52.198;5.422;2023-07-31T07:13:00;25.00;56.90
17437;DHT22;71884;52.198;5.422;2023-07-31T07:15:29;25.00;56.90
17437;DHT22;71884;52.198;5.422;2023-07-31T07:17:58;25.00;57.00
17437;DHT22;71884;52.198;5.422;2023-07-31T07:20:27;25.00;57.00
17437;DHT22;71884;52.198;5.422;2023-07-31T07:22:56;25.00;57.10
17437;DHT22;71884;52.198;5.422;2023-07-31T07:25:27;25.00;57.20
17437;DHT22;71884;52.198;5.422;2023-07-31T07:27:56;25.00;57.30
17437;DHT22;71884;52.198;5.422;2023-07-31T07:30:26;25.00;57.30
17437;DHT22;71884;52.198;5.422;2023-07-31T07:32:55;25.00;57.30
17437;DHT22;71884;52.198;5.422;2023-07-31T07:35:24;25.00;57.40
17437;DHT22;71884;52.198;5.422;2023-07-31T07:37:53;25.00;57.50
17437;DHT22;71884;52.198;5.422;2023-07-31T07:40:22;25.00;57.50
17437;DHT22;71884;52.198;5.422;2023-07-31T07:42:54;25.00;57.60
17437;DHT22;71884;52.198;5.422;2023-07-31T07:45:23;24.90;57.70
17437;DHT22;71884;52.198;5.422;2023-07-31T07:47:52;25.00;57.70
17437;DHT22;71884;52.198;5.422;2023-07-31T07:50:21;24.90;57.80
17437;DHT22;71884;52.198;5.422;2023-07-31T07:52:50;24.90;57.80
17437;DHT22;71884;52.198;5.422;2023-07-31T07:55:19;24.90;58.00
17437;DHT22;71884;52.198;5.422;2023-07-31T07:57:48;24.90;58.10
17437;DHT22;71884;52.198;5.422;2023-07-31T08:00:19;24.90;58.20
17437;DHT22;71884;52.198;5.422;2023-07-31T08:02:49;24.90;58.20
17437;DHT22;71884;52.198;5.422;2023-07-31T08:05:18;24.90;58.20
17437;DHT22;71884;52.198;5.422;2023-07-31T08:07:46;25.00;58.30
17437;DHT22;71884;52.198;5.422;2023-07-31T08:10:15;24.90;58.40
17437;DHT22;71884;52.198;5.422;2023-07-31T08:12:44;25.00;58.30
17437;DHT22;71884;52.198;5.422;2023-07-31T08:15:13;24.90;58.50
17437;DHT22;71884;52.198;5.422;2023-07-31T08:17:45;25.00;58.50
17437;DHT22;71884;52.198;5.422;2023-07-31T08:20:14;25.00;58.50
17437;DHT22;71884;52.198;5.422;2023-07-31T08:22:43;25.00;58.50
17437;DHT22;71884;52.198;5.422;2023-07-31T08:25:12;24.90;58.60
17437;DHT22;71884;52.198;5.422;2023-07-31T08:27:43;25.00;58.70
17437;DHT22;71884;52.198;5.422;2023-07-31T08:30:12;24.90;58.80
17437;DHT22;71884;52.198;5.422;2023-07-31T08:32:41;25.00;58.80
17437;DHT22;71884;52.198;5.422;2023-07-31T08:35:12;24.90;58.80
17437;DHT22;71884;52.198;5.422;2023-07-31T08:37:41;24.90;59.00
17437;DHT22;71884;52.198;5.422;2023-07-31T08:40:11;25.00;59.10
17437;DHT22;71884;52.198;5.422;2023-07-31T08:42:47;25.00;59.00
17437;DHT22;71884;52.198;5.422;2023-07-31T08:45:18;25.00;59.00
17437;DHT22;71884;52.198;5.422;2023-07-31T08:47:49;25.00;59.00
17437;DHT22;71884;52.198;5.422;2023-07-31T08:50:22;25.00;59.00
17437;DHT22;71884;52.198;5.422;2023-07-31T08:52:52;25.00;59.10
17437;DHT22;71884;52.198;5.422;2023-07-31T08:55:21;25.00;59.20
17437;DHT22;71884;52.198;5.422;2023-07-31T08:57:51;25.00;59.30
17437;DHT22;71884;52.198;5.422;2023-07-31T09:00:21;24.90;59.40
17437;DHT22;71884;52.198;5.422;2023-07-31T09:02:56;25.00;59.40
17437;DHT22;71884;52.198;5.422;2023-07-31T09:05:31;25.00;59.50
17437;DHT22;71884;52.198;5.422;2023-07-31T09:08:02;25.00;59.70
17437;DHT22;71884;52.198;5.422;2023-07-31T09:10:33;25.00;59.80
17437;DHT22;71884;52.198;5.422;2023-07-31T09:13:02;25.00;59.70
17437;DHT22;71884;52.198;5.422;2023-07-31T09:15:34;25.00;59.70
17437;DHT22;71884;52.198;5.422;2023-07-31T09:18:05;25.00;59.90
17437;DHT22;71884;52.198;5.422;2023-07-31T09:20:37;25.00;59.90
17437;DHT22;71884;52.198;5.422;2023-07-31T09:23:08;25.00;60.10
17437;DHT22;71884;52.198;5.422;2023-07-31T09:25:39;25.00;60.00
17437;DHT22;71884;52.198;5.422;2023-07-31T09:28:11;25.00;60.30
17437;DHT22;71884;52.198;5.422;2023-07-31T09:30:48;25.00;60.20
17437;DHT22;71884;52.198;5.422;2023-07-31T09:33:19;25.00;60.30
17437;DHT22;71884;52.198;5.422;2023-07-31T09:35:51;25.00;60.10
17437;DHT22;71884;52.198;5.422;2023-07-31T09:38:20;25.00;60.30
17437;DHT22;71884;52.198;5.422;2023-07-31T09:40:49;25.00;60.20
17437;DHT22;71884;52.198;5.422;2023-07-31T09:43:19;25.00;60.30
17437;DHT22;71884;52.198;5.422;2023-07-31T09:45:55;25.10;60.30
17437;DHT22;71884;52.198;5.422;2023-07-31T09:48:25;25.10;60.30
17437;DHT22;71884;52.198;5.422;2023-07-31T09:51:04;25.10;60.40
17437;DHT22;71884;52.198;5.422;2023-07-31T09:53:34;25.10;60.30
17437;DHT22;71884;52.198;5.422;2023-07-31T09:56:03;25.10;60.50
17437;DHT22;71884;52.198;5.422;2023-07-31T09:58:35;25.10;60.60
17437;DHT22;71884;52.198;5.422;2023-07-31T10:01:04;25.00;60.70
17437;DHT22;71884;52.198;5.422;2023-07-31T10:03:34;25.00;60.70
17437;DHT22;71884;52.198;5.422;2023-07-31T10:06:07;25.00;61.00
17437;DHT22;71884;52.198;5.422;2023-07-31T10:08:38;25.10;60.80
17437;DHT22;71884;52.198;5.422;2023-07-31T10:11:09;25.10;60.70
17437;DHT22;71884;52.198;5.422;2023-07-31T10:13:41;25.10;60.90
17437;DHT22;71884;52.198;5.422;2023-07-31T10:16:12;25.10;60.90
17437;DHT22;71884;52.198;5.422;2023-07-31T10:18:42;25.00;60.60
17437;DHT22;71884;52.198;5.422;2023-07-31T10:21:16;25.10;60.50
17437;DHT22;71884;52.198;5.422;2023-07-31T10:23:46;25.10;60.50
17437;DHT22;71884;52.198;5.422;2023-07-31T10:26:17;25.10;60.40
17437;DHT22;71884;52.198;5.422;2023-07-31T10:28:48;25.10;60.80
17437;DHT22;71884;52.198;5.422;2023-07-31T10:31:20;25.10;60.60
17437;DHT22;71884;52.198;5.422;2023-07-31T10:33:50;25.10;60.80
17437;DHT22;71884;52.198;5.422;2023-07-31T10:36:23;25.10;60.70
17437;DHT22;71884;52.198;5.422;2023-07-31T10:38:52;25.20;60.70
17437;DHT22;71884;52.198;5.422;2023-07-31T10:41:33;25.20;60.30
17437;DHT22;71884;52.198;5.422;2023-07-31T10:44:07;25.20;60.30
17437;DHT22;71884;52.198;5.422;2023-07-31T10:46:36;25.20;60.30
17437;DHT22;71884;52.198;5.422;2023-07-31T10:49:05;25.20;60.60
17437;DHT22;71884;52.198;5.422;2023-07-31T10:51:37;25.20;60.60
17437;DHT22;71884;52.198;5.422;2023-07-31T10:54:12;25.20;60.50
17437;DHT22;71884;52.198;5.422;2023-07-31T10:56:45;25.20;60.70
17437;DHT22;71884;52.198;5.422;2023-07-31T10:59:14;25.20;60.50
17437;DHT22;71884;52.198;5.422;2023-07-31T11:01:53;25.10;60.60
17437;DHT22;71884;52.198;5.422;2023-07-31T11:04:24;25.10;60.70
17437;DHT22;71884;52.198;5.422;2023-07-31T11:07:00;25.10;60.60
17437;DHT22;71884;52.198;5.422;2023-07-31T11:09:34;25.10;60.80
17437;DHT22;71884;52.198;5.422;2023-07-31T11:12:03;25.20;60.60
17437;DHT22;71884;52.198;5.422;2023-07-31T11:14:33;25.10;60.50
17437;DHT22;71884;52.198;5.422;2023-07-31T11:17:06;25.20;60.50
17437;DHT22;71884;52.198;5.422;2023-07-31T11:19:38;25.20;60.60
17437;DHT22;71884;52.198;5.422;2023-07-31T11:22:09;25.20;60.50
17437;DHT22;71884;52.198;5.422;2023-07-31T11:24:39;25.20;60.40
17437;DHT22;71884;52.198;5.422;2023-07-31T11:27:08;25.20;60.50
17437;DHT22;71884;52.198;5.422;2023-07-31T11:29:37;25.20;60.70
17437;DHT22;71884;52.198;5.422;2023-07-31T11:32:15;25.20;60.60
17437;DHT22;71884;52.198;5.422;2023-07-31T11:34:52;25.20;60.70
17437;DHT22;71884;52.198;5.422;2023-07-31T11:37:24;25.20;61.10
17437;DHT22;71884;52.198;5.422;2023-07-31T11:40:07;25.20;61.20
17437;DHT22;71884;52.198;5.422;2023-07-31T11:42:37;25.20;60.80
17437;DHT22;71884;52.198;5.422;2023-07-31T11:45:08;25.20;61.00
17437;DHT22;71884;52.198;5.422;2023-07-31T11:47:38;25.30;60.90
17437;DHT22;71884;52.198;5.422;2023-07-31T11:50:10;25.30;60.70
17437;DHT22;71884;52.198;5.422;2023-07-31T11:52:45;25.30;60.60
17437;DHT22;71884;52.198;5.422;2023-07-31T11:55:17;25.20;60.90
17437;DHT22;71884;52.198;5.422;2023-07-31T11:57:46;25.30;60.90
17437;DHT22;71884;52.198;5.422;2023-07-31T12:00:17;25.20;60.80
17437;DHT22;71884;52.198;5.422;2023-07-31T12:02:47;25.20;61.00
17437;DHT22;71884;52.198;5.422;2023-07-31T12:05:16;25.20;60.90
17437;DHT22;71884;52.198;5.422;2023-07-31T12:07:49;25.20;61.10
17437;DHT22;71884;52.198;5.422;2023-07-31T12:10:24;25.20;61.00
17437;DHT22;71884;52.198;5.422;2023-07-31T12:13:02;25.20;61.10
17437;DHT22;71884;52.198;5.422;2023-07-31T12:15:37;25.20;61.00
17437;DHT22;71884;52.198;5.422;2023-07-31T12:18:10;25.20;61.00
17437;DHT22;71884;52.198;5.422;2023-07-31T12:20:41;25.20;61.10
17437;DHT22;71884;52.198;5.422;2023-07-31T12:23:18;25.20;61.00
17437;DHT22;71884;52.198;5.422;2023-07-31T12:26:00;25.20;61.10
17437;DHT22;71884;52.198;5.422;2023-07-31T12:28:30;25.20;61.10
17437;DHT22;71884;52.198;5.422;2023-07-31T12:31:00;25.20;61.00
17437;DHT22;71884;52.198;5.422;2023-07-31T12:33:33;25.20;61.00
17437;DHT22;71884;52.198;5.422;2023-07-31T12:36:06;25.20;61.10
17437;DHT22;71884;52.198;5.422;2023-07-31T12:38:39;25.20;61.10
17437;DHT22;71884;52.198;5.422;2023-07-31T12:41:08;25.20;61.00
17437;DHT22;71884;52.198;5.422;2023-07-31T12:43:38;25.20;61.10
17437;DHT22;71884;52.198;5.422;2023-07-31T12:46:08;25.20;61.10
17437;DHT22;71884;52.198;5.422;2023-07-31T12:48:38;25.20;61.00
17437;DHT22;71884;52.198;5.422;2023-07-31T12:51:07;25.20;61.10
17437;DHT22;71884;52.198;5.422;2023-07-31T12:53:39;25.20;61.00
17437;DHT22;71884;52.198;5.422;2023-07-31T12:56:08;25.20;61.10
17437;DHT22;71884;52.198;5.422;2023-07-31T12:58:37;25.20;61.00
17437;DHT22;71884;52.198;5.422;2023-07-31T13:01:06;25.20;61.00
17437;DHT22;71884;52.198;5.422;2023-07-31T13:03:35;25.20;61.20
17437;DHT22;71884;52.198;5.422;2023-07-31T13:06:04;25.20;61.30
17437;DHT22;71884;52.198;5.422;2023-07-31T13:08:34;25.20;61.20
17437;DHT22;71884;52.198;5.422;2023-07-31T13:11:05;25.20;61.10
17437;DHT22;71884;52.198;5.422;2023-07-31T13:13:34;25.20;61.00
17437;DHT22;71884;52.198;5.422;2023-07-31T13:16:04;25.30;61.00
17437;DHT22;71884;52.198;5.422;2023-07-31T13:18:33;25.10;62.30
17437;DHT22;71884;52.198;5.422;2023-07-31T13:21:02;24.70;63.90
17437;DHT22;71884;52.198;5.422;2023-07-31T13:23:31;24.80;64.00
17437;DHT22;71884;52.198;5.422;2023-07-31T13:26:00;24.80;64.10
17437;DHT22;71884;52.198;5.422;2023-07-31T13:28:32;24.70;64.60
17437;DHT22;71884;52.198;5.422;2023-07-31T13:31:01;24.50;65.50
17437;DHT22;71884;52.198;5.422;2023-07-31T13:33:30;24.40;65.60
17437;DHT22;71884;52.198;5.422;2023-07-31T13:35:59;24.50;65.50
17437;DHT22;71884;52.198;5.422;2023-07-31T13:38:28;24.60;64.90
17437;DHT22;71884;52.198;5.422;2023-07-31T13:40:57;24.60;64.70
17437;DHT22;71884;52.198;5.422;2023-07-31T13:43:26;24.70;64.60
17437;DHT22;71884;52.198;5.422;2023-07-31T13:45:57;24.70;65.10
17437;DHT22;71884;52.198;5.422;2023-07-31T13:48:34;24.70;64.90
17437;DHT22;71884;52.198;5.422;2023-07-31T13:51:03;24.60;65.70
17437;DHT22;71884;52.198;5.422;2023-07-31T13:53:32;24.60;65.20
17437;DHT22;71884;52.198;5.422;2023-07-31T13:56:02;24.80;64.50
17437;DHT22;71884;52.198;5.422;2023-07-31T13:58:31;24.80;64.70
17437;DHT22;71884;52.198;5.422;2023-07-31T14:01:03;24.70;65.20
17437;DHT22;71884;52.198;5.422;2023-07-31T14:03:32;24.80;64.80
17437;DHT22;71884;52.198;5.422;2023-07-31T14:06:02;24.70;65.30
17437;DHT22;71884;52.198;5.422;2023-07-31T14:08:31;24.60;65.70
17437;DHT22;71884;52.198;5.422;2023-07-31T14:11:00;24.60;65.70
17437;DHT22;71884;52.198;5.422;2023-07-31T14:13:29;24.60;66.10
17437;DHT22;71884;52.198;5.422;2023-07-31T14:15:58;24.40;66.60
17437;DHT22;71884;52.198;5.422;2023-07-31T14:18:30;24.40;66.70
17437;DHT22;71884;52.198;5.422;2023-07-31T14:20:59;24.60;66.00
17437;DHT22;71884;52.198;5.422;2023-07-31T14:23:28;24.60;66.30
17437;DHT22;71884;52.198;5.422;2023-07-31T14:25:57;24.40;67.00
17437;DHT22;71884;52.198;5.422;2023-07-31T14:28:26;24.30;67.40
17437;DHT22;71884;52.198;5.422;2023-07-31T14:30:55;24.40;67.00
17437;DHT22;71884;52.198;5.422;2023-07-31T14:33:24;24.30;67.60
17437;DHT22;71884;52.198;5.422;2023-07-31T14:35:55;24.30;67.50
17437;DHT22;71884;52.198;5.422;2023-07-31T14:38:24;24.20;67.90
17437;DHT22;71884;52.198;5.422;2023-07-31T14:40:53;24.30;67.80
17437;DHT22;71884;52.198;5.422;2023-07-31T14:43:22;24.40;67.40
17437;DHT22;71884;52.198;5.422;2023-07-31T14:45:51;24.50;66.90
17437;DHT22;71884;52.198;5.422;2023-07-31T14:48:23;24.50;66.90
17437;DHT22;71884;52.198;5.422;2023-07-31T14:50:55;24.50;67.10
17437;DHT22;71884;52.198;5.422;2023-07-31T14:53:24;24.50;67.20
17437;DHT22;71884;52.198;5.422;2023-07-31T14:55:53;24.50;66.80
17437;DHT22;71884;52.198;5.422;2023-07-31T14:58:22;24.60;67.00
17437;DHT22;71884;52.198;5.422;2023-07-31T15:00:51;24.60;66.80
17437;DHT22;71884;52.198;5.422;2023-07-31T15:03:20;24.50;67.00
17437;DHT22;71884;52.198;5.422;2023-07-31T15:05:50;24.70;66.10
17437;DHT22;71884;52.198;5.422;2023-07-31T15:08:22;24.80;65.70
17437;DHT22;71884;52.198;5.422;2023-07-31T15:10:51;24.80;65.90
17437;DHT22;71884;52.198;5.422;2023-07-31T15:13:23;24.80;65.70
17437;DHT22;71884;52.198;5.422;2023-07-31T15:15:52;24.80;65.40
17437;DHT22;71884;52.198;5.422;2023-07-31T15:18:21;24.90;64.80
17437;DHT22;71884;52.198;5.422;2023-07-31T15:20:50;24.80;65.40
17437;DHT22;71884;52.198;5.422;2023-07-31T15:23:22;24.70;65.50
17437;DHT22;71884;52.198;5.422;2023-07-31T15:25:51;24.70;65.60
17437;DHT22;71884;52.198;5.422;2023-07-31T15:28:20;24.60;66.10
17437;DHT22;71884;52.198;5.422;2023-07-31T15:30:50;24.60;65.80
17437;DHT22;71884;52.198;5.422;2023-07-31T15:33:19;24.70;65.40
17437;DHT22;71884;52.198;5.422;2023-07-31T15:35:48;24.60;66.00
17437;DHT22;71884;52.198;5.422;2023-07-31T15:38:23;24.30;67.20
17437;DHT22;71884;52.198;5.422;2023-07-31T15:40:52;24.30;67.00
17437;DHT22;71884;52.198;5.422;2023-07-31T15:43:22;24.50;66.30
17437;DHT22;71884;52.198;5.422;2023-07-31T15:45:51;24.60;65.70
17437;DHT22;71884;52.198;5.422;2023-07-31T15:48:20;24.50;66.30